sensor_id;sensor_type;location;lat;lon;timestamp;P1;durP1;ratioP1;P2;durP2;ratioP2
69783;SDS011;57054;51.978;4.498;2023-08-12T00:00:40;4.22;;;1.85;;
69783;SDS011;57054;51.978;4.498;2023-08-12T00:03:05;4.38;;;1.77;;
69783;SDS011;57054;51.978;4.498;2023-08-12T00:05:31;2.72;;;1.80;;
69783;SDS011;57054;51.978;4.498;2023-08-12T00:07:56;3.80;;;2.20;;
69783;SDS011;57054;51.978;4.498;2023-08-12T00:10:21;4.47;;;1.35;;
69783;SDS011;57054;51.978;4.498;2023-08-12T00:12:47;3.25;;;1.63;;
69783;SDS011;57054;51.978;4.498;2023-08-12T00:15:12;6.68;;;1.73;;
69783;SDS011;57054;51.978;4.498;2023-08-12T00:17:38;3.50;;;1.77;;
69783;SDS011;57054;51.978;4.498;2023-08-12T00:20:06;4.05;;;1.83;;
69783;SDS011;57054;51.978;4.498;2023-08-12T00:22:33;2.67;;;1.45;;
69783;SDS011;57054;51.978;4.498;2023-08-12T00:24:59;3.30;;;1.83;;
69783;SDS011;57054;51.978;4.498;2023-08-12T00:27:24;5.05;;;1.70;;
69783;SDS011;57054;51.978;4.498;2023-08-12T00:29:50;2.58;;;1.80;;
69783;SDS011;57054;51.978;4.498;2023-08-12T00:32:15;3.97;;;1.77;;
69783;SDS011;57054;51.978;4.498;2023-08-12T00:34:40;3.95;;;1.95;;
69783;SDS011;57054;51.978;4.498;2023-08-12T00:37:06;3.38;;;2.08;;
69783;SDS011;57054;51.978;4.498;2023-08-12T00:39:31;2.00;;;1.70;;
69783;SDS011;57054;51.978;4.498;2023-08-12T00:41:56;2.55;;;1.95;;
69783;SDS011;57054;51.978;4.498;2023-08-12T00:44:22;3.25;;;1.73;;
69783;SDS011;57054;51.978;4.498;2023-08-12T00:46:47;3.17;;;1.75;;
69783;SDS011;57054;51.978;4.498;2023-08-12T00:49:13;2.10;;;1.80;;
69783;SDS011;57054;51.978;4.498;2023-08-12T00:51:40;3.25;;;1.80;;
69783;SDS011;57054;51.978;4.498;2023-08-12T00:54:08;5.32;;;1.75;;
69783;SDS011;57054;51.978;4.498;2023-08-12T00:56:38;2.22;;;1.77;;
69783;SDS011;57054;51.978;4.498;2023-08-12T00:59:04;3.63;;;2.03;;
69783;SDS011;57054;51.978;4.498;2023-08-12T01:01:32;2.80;;;1.90;;
69783;SDS011;57054;51.978;4.498;2023-08-12T01:03:57;2.10;;;1.90;;
69783;SDS011;57054;51.978;4.498;2023-08-12T01:06:23;3.35;;;2.20;;
69783;SDS011;57054;51.978;4.498;2023-08-12T01:08:49;4.53;;;2.13;;
69783;SDS011;57054;51.978;4.498;2023-08-12T01:11:16;3.22;;;2.35;;
69783;SDS011;57054;51.978;4.498;2023-08-12T01:14:08;2.15;;;1.95;;
69783;SDS011;57054;51.978;4.498;2023-08-12T01:16:37;2.42;;;2.20;;
69783;SDS011;57054;51.978;4.498;2023-08-12T01:19:08;3.47;;;2.05;;
69783;SDS011;57054;51.978;4.498;2023-08-12T01:21:36;3.50;;;2.03;;
69783;SDS011;57054;51.978;4.498;2023-08-12T01:24:08;4.30;;;2.63;;
69783;SDS011;57054;51.978;4.498;2023-08-12T01:26:34;5.30;;;2.42;;
69783;SDS011;57054;51.978;4.498;2023-08-12T01:28:59;3.58;;;1.90;;
69783;SDS011;57054;51.978;4.498;2023-08-12T01:31:31;2.42;;;2.22;;
69783;SDS011;57054;51.978;4.498;2023-08-12T01:38:59;3.55;;;2.05;;
69783;SDS011;57054;51.978;4.498;2023-08-12T01:41:25;2.47;;;2.28;;
69783;SDS011;57054;51.978;4.498;2023-08-12T01:43:51;3.78;;;2.58;;
69783;SDS011;57054;51.978;4.498;2023-08-12T01:46:17;4.63;;;2.95;;
69783;SDS011;57054;51.978;4.498;2023-08-12T01:48:43;3.80;;;2.83;;
69783;SDS011;57054;51.978;4.498;2023-08-12T01:51:08;5.10;;;3.10;;
69783;SDS011;57054;51.978;4.498;2023-08-12T01:53:33;6.03;;;3.10;;
69783;SDS011;57054;51.978;4.498;2023-08-12T01:55:59;6.30;;;2.92;;
69783;SDS011;57054;51.978;4.498;2023-08-12T01:58:24;3.10;;;2.85;;
69783;SDS011;57054;51.978;4.498;2023-08-12T02:00:51;4.03;;;3.03;;
69783;SDS011;57054;51.978;4.498;2023-08-12T02:03:17;7.32;;;3.38;;
69783;SDS011;57054;51.978;4.498;2023-08-12T02:05:42;3.28;;;2.97;;
69783;SDS011;57054;51.978;4.498;2023-08-12T02:08:08;6.10;;;2.97;;
69783;SDS011;57054;51.978;4.498;2023-08-12T02:10:34;3.25;;;2.95;;
69783;SDS011;57054;51.978;4.498;2023-08-12T02:12:59;6.18;;;2.90;;
69783;SDS011;57054;51.978;4.498;2023-08-12T02:15:24;3.33;;;3.03;;
69783;SDS011;57054;51.978;4.498;2023-08-12T02:17:50;4.60;;;3.28;;
69783;SDS011;57054;51.978;4.498;2023-08-12T02:20:15;4.82;;;2.90;;
69783;SDS011;57054;51.978;4.498;2023-08-12T02:22:41;3.58;;;3.13;;
69783;SDS011;57054;51.978;4.498;2023-08-12T02:25:06;3.33;;;2.95;;
69783;SDS011;57054;51.978;4.498;2023-08-12T02:27:32;3.00;;;2.78;;
69783;SDS011;57054;51.978;4.498;2023-08-12T02:29:57;3.55;;;2.92;;
69783;SDS011;57054;51.978;4.498;2023-08-12T02:32:22;3.83;;;2.90;;
69783;SDS011;57054;51.978;4.498;2023-08-12T02:34:48;3.50;;;3.20;;
69783;SDS011;57054;51.978;4.498;2023-08-12T02:37:13;4.03;;;3.35;;
69783;SDS011;57054;51.978;4.498;2023-08-12T02:39:39;3.65;;;3.00;;
69783;SDS011;57054;51.978;4.498;2023-08-12T02:42:04;4.07;;;3.33;;
69783;SDS011;57054;51.978;4.498;2023-08-12T02:44:30;4.05;;;3.53;;
69783;SDS011;57054;51.978;4.498;2023-08-12T02:46:55;5.32;;;3.67;;
69783;SDS011;57054;51.978;4.498;2023-08-12T02:49:20;3.63;;;3.33;;
69783;SDS011;57054;51.978;4.498;2023-08-12T02:51:46;5.03;;;3.70;;
69783;SDS011;57054;51.978;4.498;2023-08-12T02:54:11;4.07;;;3.42;;
69783;SDS011;57054;51.978;4.498;2023-08-12T02:56:37;4.25;;;3.90;;
69783;SDS011;57054;51.978;4.498;2023-08-12T02:59:02;5.45;;;3.83;;
69783;SDS011;57054;51.978;4.498;2023-08-12T03:01:27;4.65;;;4.18;;
69783;SDS011;57054;51.978;4.498;2023-08-12T03:03:53;4.30;;;3.90;;
69783;SDS011;57054;51.978;4.498;2023-08-12T03:06:18;5.18;;;3.88;;
69783;SDS011;57054;51.978;4.498;2023-08-12T03:08:44;4.50;;;4.10;;
69783;SDS011;57054;51.978;4.498;2023-08-12T03:11:09;6.75;;;4.25;;
69783;SDS011;57054;51.978;4.498;2023-08-12T03:13:34;7.88;;;4.40;;
69783;SDS011;57054;51.978;4.498;2023-08-12T03:16:00;4.90;;;4.50;;
69783;SDS011;57054;51.978;4.498;2023-08-12T03:18:25;6.00;;;5.15;;
69783;SDS011;57054;51.978;4.498;2023-08-12T03:20:51;4.72;;;4.32;;
69783;SDS011;57054;51.978;4.498;2023-08-12T03:23:16;7.00;;;4.65;;
69783;SDS011;57054;51.978;4.498;2023-08-12T03:25:41;6.60;;;4.78;;
69783;SDS011;57054;51.978;4.498;2023-08-12T03:28:07;4.97;;;4.38;;
69783;SDS011;57054;51.978;4.498;2023-08-12T03:30:33;5.78;;;4.95;;
69783;SDS011;57054;51.978;4.498;2023-08-12T03:32:58;5.10;;;4.80;;
69783;SDS011;57054;51.978;4.498;2023-08-12T03:35:23;8.15;;;5.38;;
69783;SDS011;57054;51.978;4.498;2023-08-12T03:37:49;6.13;;;4.85;;
69783;SDS011;57054;51.978;4.498;2023-08-12T03:40:16;7.78;;;5.15;;
69783;SDS011;57054;51.978;4.498;2023-08-12T03:42:41;5.40;;;5.00;;
69783;SDS011;57054;51.978;4.498;2023-08-12T03:45:07;5.78;;;5.25;;
69783;SDS011;57054;51.978;4.498;2023-08-12T03:47:32;8.45;;;5.80;;
69783;SDS011;57054;51.978;4.498;2023-08-12T03:49:58;6.20;;;5.63;;
69783;SDS011;57054;51.978;4.498;2023-08-12T03:52:23;7.22;;;6.53;;
69783;SDS011;57054;51.978;4.498;2023-08-12T03:54:48;6.40;;;5.75;;
69783;SDS011;57054;51.978;4.498;2023-08-12T03:57:14;9.13;;;5.35;;
69783;SDS011;57054;51.978;4.498;2023-08-12T03:59:39;8.32;;;5.60;;
69783;SDS011;57054;51.978;4.498;2023-08-12T04:02:05;6.60;;;5.40;;
69783;SDS011;57054;51.978;4.498;2023-08-12T04:04:30;5.85;;;5.20;;
69783;SDS011;57054;51.978;4.498;2023-08-12T04:06:56;7.20;;;5.68;;
69783;SDS011;57054;51.978;4.498;2023-08-12T04:09:21;6.03;;;5.53;;
69783;SDS011;57054;51.978;4.498;2023-08-12T04:11:47;7.50;;;5.40;;
69783;SDS011;57054;51.978;4.498;2023-08-12T04:14:13;6.43;;;5.57;;
69783;SDS011;57054;51.978;4.498;2023-08-12T04:16:39;6.32;;;5.50;;
69783;SDS011;57054;51.978;4.498;2023-08-12T04:19:04;6.38;;;5.78;;
69783;SDS011;57054;51.978;4.498;2023-08-12T04:21:30;6.20;;;5.53;;
69783;SDS011;57054;51.978;4.498;2023-08-12T04:23:55;6.40;;;5.80;;
69783;SDS011;57054;51.978;4.498;2023-08-12T04:26:21;6.13;;;5.63;;
69783;SDS011;57054;51.978;4.498;2023-08-12T04:28:46;6.15;;;5.55;;
69783;SDS011;57054;51.978;4.498;2023-08-12T04:31:11;7.47;;;5.90;;
69783;SDS011;57054;51.978;4.498;2023-08-12T04:33:37;6.78;;;6.10;;
69783;SDS011;57054;51.978;4.498;2023-08-12T04:36:02;11.60;;;6.30;;
69783;SDS011;57054;51.978;4.498;2023-08-12T04:38:28;7.75;;;5.93;;
69783;SDS011;57054;51.978;4.498;2023-08-12T04:40:53;11.18;;;7.30;;
69783;SDS011;57054;51.978;4.498;2023-08-12T04:43:19;6.60;;;6.00;;
69783;SDS011;57054;51.978;4.498;2023-08-12T04:45:45;8.25;;;6.25;;
69783;SDS011;57054;51.978;4.498;2023-08-12T04:48:11;6.97;;;6.00;;
69783;SDS011;57054;51.978;4.498;2023-08-12T04:50:37;8.57;;;6.15;;
69783;SDS011;57054;51.978;4.498;2023-08-12T04:53:03;8.52;;;6.38;;
69783;SDS011;57054;51.978;4.498;2023-08-12T04:55:31;7.22;;;6.30;;
69783;SDS011;57054;51.978;4.498;2023-08-12T04:57:57;8.32;;;6.72;;
69783;SDS011;57054;51.978;4.498;2023-08-12T05:00:22;7.30;;;6.70;;
69783;SDS011;57054;51.978;4.498;2023-08-12T05:02:48;7.50;;;6.60;;
69783;SDS011;57054;51.978;4.498;2023-08-12T05:05:13;9.38;;;7.30;;
69783;SDS011;57054;51.978;4.498;2023-08-12T05:07:38;7.85;;;6.65;;
69783;SDS011;57054;51.978;4.498;2023-08-12T05:10:04;7.10;;;6.45;;
69783;SDS011;57054;51.978;4.498;2023-08-12T05:12:30;8.10;;;6.55;;
69783;SDS011;57054;51.978;4.498;2023-08-12T05:14:55;7.63;;;6.90;;
69783;SDS011;57054;51.978;4.498;2023-08-12T05:17:21;12.50;;;8.98;;
69783;SDS011;57054;51.978;4.498;2023-08-12T05:19:46;16.80;;;7.20;;
69783;SDS011;57054;51.978;4.498;2023-08-12T05:22:12;11.25;;;7.53;;
69783;SDS011;57054;51.978;4.498;2023-08-12T05:24:37;17.88;;;8.73;;
69783;SDS011;57054;51.978;4.498;2023-08-12T05:27:03;9.57;;;8.48;;
69783;SDS011;57054;51.978;4.498;2023-08-12T05:29:29;10.93;;;8.25;;
69783;SDS011;57054;51.978;4.498;2023-08-12T05:31:55;8.10;;;7.30;;
69783;SDS011;57054;51.978;4.498;2023-08-12T05:34:20;8.82;;;7.95;;
69783;SDS011;57054;51.978;4.498;2023-08-12T05:36:45;7.93;;;7.13;;
69783;SDS011;57054;51.978;4.498;2023-08-12T05:39:11;9.07;;;8.18;;
69783;SDS011;57054;51.978;4.498;2023-08-12T05:41:36;19.13;;;11.10;;
69783;SDS011;57054;51.978;4.498;2023-08-12T05:44:02;10.38;;;8.18;;
69783;SDS011;57054;51.978;4.498;2023-08-12T05:46:27;11.85;;;7.53;;
69783;SDS011;57054;51.978;4.498;2023-08-12T05:48:53;6.72;;;6.13;;
69783;SDS011;57054;51.978;4.498;2023-08-12T05:51:18;8.02;;;6.75;;
69783;SDS011;57054;51.978;4.498;2023-08-12T05:53:43;6.78;;;6.05;;
69783;SDS011;57054;51.978;4.498;2023-08-12T05:56:09;6.15;;;5.57;;
69783;SDS011;57054;51.978;4.498;2023-08-12T05:58:34;8.38;;;5.88;;
69783;SDS011;57054;51.978;4.498;2023-08-12T06:00:59;5.85;;;5.35;;
69783;SDS011;57054;51.978;4.498;2023-08-12T06:03:25;6.25;;;5.63;;
69783;SDS011;57054;51.978;4.498;2023-08-12T06:05:50;6.35;;;5.75;;
69783;SDS011;57054;51.978;4.498;2023-08-12T06:08:16;5.28;;;4.85;;
69783;SDS011;57054;51.978;4.498;2023-08-12T06:10:41;5.30;;;4.63;;
69783;SDS011;57054;51.978;4.498;2023-08-12T06:13:06;4.72;;;3.70;;
69783;SDS011;57054;51.978;4.498;2023-08-12T06:15:32;4.15;;;3.80;;
69783;SDS011;57054;51.978;4.498;2023-08-12T06:18:01;5.22;;;3.72;;
69783;SDS011;57054;51.978;4.498;2023-08-12T06:20:27;3.53;;;3.22;;
69783;SDS011;57054;51.978;4.498;2023-08-12T06:22:52;5.10;;;2.97;;
69783;SDS011;57054;51.978;4.498;2023-08-12T06:25:18;2.58;;;2.38;;
69783;SDS011;57054;51.978;4.498;2023-08-12T06:27:45;2.72;;;2.53;;
69783;SDS011;57054;51.978;4.498;2023-08-12T06:30:11;2.88;;;2.28;;
69783;SDS011;57054;51.978;4.498;2023-08-12T06:32:37;2.40;;;2.20;;
69783;SDS011;57054;51.978;4.498;2023-08-12T06:35:03;2.70;;;2.00;;
69783;SDS011;57054;51.978;4.498;2023-08-12T06:37:29;2.35;;;2.10;;
69783;SDS011;57054;51.978;4.498;2023-08-12T06:39:54;2.00;;;1.90;;
69783;SDS011;57054;51.978;4.498;2023-08-12T06:42:20;1.98;;;1.88;;
69783;SDS011;57054;51.978;4.498;2023-08-12T06:44:46;1.80;;;1.65;;
69783;SDS011;57054;51.978;4.498;2023-08-12T06:47:11;2.22;;;2.03;;
69783;SDS011;57054;51.978;4.498;2023-08-12T06:49:36;2.10;;;2.00;;
69783;SDS011;57054;51.978;4.498;2023-08-12T06:52:02;2.53;;;1.70;;
69783;SDS011;57054;51.978;4.498;2023-08-12T06:54:27;2.55;;;1.88;;
69783;SDS011;57054;51.978;4.498;2023-08-12T06:56:53;3.22;;;1.77;;
69783;SDS011;57054;51.978;4.498;2023-08-12T06:59:18;2.42;;;1.70;;
69783;SDS011;57054;51.978;4.498;2023-08-12T07:01:44;1.40;;;1.30;;
69783;SDS011;57054;51.978;4.498;2023-08-12T07:04:09;1.90;;;1.80;;
69783;SDS011;57054;51.978;4.498;2023-08-12T07:06:34;1.80;;;1.70;;
69783;SDS011;57054;51.978;4.498;2023-08-12T07:09:00;1.50;;;1.40;;
69783;SDS011;57054;51.978;4.498;2023-08-12T07:11:25;2.47;;;1.75;;
69783;SDS011;57054;51.978;4.498;2023-08-12T07:13:50;1.60;;;1.50;;
69783;SDS011;57054;51.978;4.498;2023-08-12T07:16:16;2.28;;;1.38;;
69783;SDS011;57054;51.978;4.498;2023-08-12T07:18:41;1.73;;;1.30;;
69783;SDS011;57054;51.978;4.498;2023-08-12T07:21:07;2.03;;;1.40;;
69783;SDS011;57054;51.978;4.498;2023-08-12T07:23:32;3.30;;;1.33;;
69783;SDS011;57054;51.978;4.498;2023-08-12T07:25:58;4.07;;;1.17;;
69783;SDS011;57054;51.978;4.498;2023-08-12T07:28:23;7.18;;;1.38;;
69783;SDS011;57054;51.978;4.498;2023-08-12T07:30:48;5.05;;;1.27;;
69783;SDS011;57054;51.978;4.498;2023-08-12T07:33:14;8.82;;;1.90;;
69783;SDS011;57054;51.978;4.498;2023-08-12T07:35:40;4.47;;;1.20;;
69783;SDS011;57054;51.978;4.498;2023-08-12T07:38:06;3.83;;;1.20;;
69783;SDS011;57054;51.978;4.498;2023-08-12T07:40:31;4.60;;;1.50;;
69783;SDS011;57054;51.978;4.498;2023-08-12T07:42:57;3.55;;;1.30;;
69783;SDS011;57054;51.978;4.498;2023-08-12T07:45:22;3.20;;;1.30;;
69783;SDS011;57054;51.978;4.498;2023-08-12T07:47:51;3.35;;;1.38;;
69783;SDS011;57054;51.978;4.498;2023-08-12T07:52:42;2.47;;;1.20;;
69783;SDS011;57054;51.978;4.498;2023-08-12T07:55:07;3.00;;;1.23;;
69783;SDS011;57054;51.978;4.498;2023-08-12T07:57:33;6.30;;;1.23;;
69783;SDS011;57054;51.978;4.498;2023-08-12T07:59:58;3.80;;;1.20;;
69783;SDS011;57054;51.978;4.498;2023-08-12T08:02:24;3.35;;;1.40;;
69783;SDS011;57054;51.978;4.498;2023-08-12T08:04:49;2.92;;;1.38;;
69783;SDS011;57054;51.978;4.498;2023-08-12T08:07:15;3.38;;;1.35;;
69783;SDS011;57054;51.978;4.498;2023-08-12T08:09:41;5.60;;;1.33;;
69783;SDS011;57054;51.978;4.498;2023-08-12T08:12:08;2.55;;;1.65;;
69783;SDS011;57054;51.978;4.498;2023-08-12T08:14:34;4.80;;;1.13;;
69783;SDS011;57054;51.978;4.498;2023-08-12T08:17:00;1.70;;;1.13;;
69783;SDS011;57054;51.978;4.498;2023-08-12T08:19:25;4.03;;;1.40;;
69783;SDS011;57054;51.978;4.498;2023-08-12T08:21:50;4.20;;;1.88;;
69783;SDS011;57054;51.978;4.498;2023-08-12T08:24:16;2.28;;;1.45;;
69783;SDS011;57054;51.978;4.498;2023-08-12T08:26:41;2.17;;;1.30;;
69783;SDS011;57054;51.978;4.498;2023-08-12T08:29:06;4.30;;;1.85;;
69783;SDS011;57054;51.978;4.498;2023-08-12T08:31:32;2.78;;;1.63;;
69783;SDS011;57054;51.978;4.498;2023-08-12T08:33:58;2.88;;;2.10;;
69783;SDS011;57054;51.978;4.498;2023-08-12T08:36:23;5.68;;;1.75;;
69783;SDS011;57054;51.978;4.498;2023-08-12T08:38:49;3.75;;;2.13;;
69783;SDS011;57054;51.978;4.498;2023-08-12T08:41:16;4.28;;;2.17;;
69783;SDS011;57054;51.978;4.498;2023-08-12T08:43:42;4.78;;;2.00;;
69783;SDS011;57054;51.978;4.498;2023-08-12T08:46:13;4.50;;;1.60;;
69783;SDS011;57054;51.978;4.498;2023-08-12T08:48:40;3.03;;;1.60;;
69783;SDS011;57054;51.978;4.498;2023-08-12T08:51:06;4.68;;;1.85;;
69783;SDS011;57054;51.978;4.498;2023-08-12T08:53:35;1.88;;;1.02;;
69783;SDS011;57054;51.978;4.498;2023-08-12T08:56:02;2.70;;;1.60;;
69783;SDS011;57054;51.978;4.498;2023-08-12T08:58:30;3.27;;;1.40;;
69783;SDS011;57054;51.978;4.498;2023-08-12T09:00:56;3.00;;;1.40;;
69783;SDS011;57054;51.978;4.498;2023-08-12T09:03:22;3.58;;;1.52;;
69783;SDS011;57054;51.978;4.498;2023-08-12T09:05:47;3.45;;;1.48;;
69783;SDS011;57054;51.978;4.498;2023-08-12T09:08:13;7.65;;;1.90;;
69783;SDS011;57054;51.978;4.498;2023-08-12T09:10:39;4.43;;;1.80;;
69783;SDS011;57054;51.978;4.498;2023-08-12T09:13:06;5.28;;;2.13;;
69783;SDS011;57054;51.978;4.498;2023-08-12T09:15:33;3.67;;;1.52;;
69783;SDS011;57054;51.978;4.498;2023-08-12T09:17:59;7.93;;;1.80;;
69783;SDS011;57054;51.978;4.498;2023-08-12T09:20:24;4.20;;;1.67;;
69783;SDS011;57054;51.978;4.498;2023-08-12T09:22:56;7.55;;;1.98;;
69783;SDS011;57054;51.978;4.498;2023-08-12T09:25:23;3.63;;;1.42;;
69783;SDS011;57054;51.978;4.498;2023-08-12T09:27:48;4.85;;;1.58;;
69783;SDS011;57054;51.978;4.498;2023-08-12T09:30:14;2.95;;;1.40;;
69783;SDS011;57054;51.978;4.498;2023-08-12T09:32:39;5.90;;;1.65;;
69783;SDS011;57054;51.978;4.498;2023-08-12T09:35:05;2.65;;;1.85;;
69783;SDS011;57054;51.978;4.498;2023-08-12T09:37:31;5.50;;;1.77;;
69783;SDS011;57054;51.978;4.498;2023-08-12T09:39:57;6.03;;;1.30;;
69783;SDS011;57054;51.978;4.498;2023-08-12T09:42:23;4.80;;;1.52;;
69783;SDS011;57054;51.978;4.498;2023-08-12T09:44:49;3.95;;;1.67;;
69783;SDS011;57054;51.978;4.498;2023-08-12T09:47:14;3.83;;;1.48;;
69783;SDS011;57054;51.978;4.498;2023-08-12T09:49:39;5.85;;;1.85;;
69783;SDS011;57054;51.978;4.498;2023-08-12T09:52:05;5.82;;;1.70;;
69783;SDS011;57054;51.978;4.498;2023-08-12T09:54:32;3.75;;;1.48;;
69783;SDS011;57054;51.978;4.498;2023-08-12T09:56:58;8.85;;;1.70;;
69783;SDS011;57054;51.978;4.498;2023-08-12T09:59:27;3.33;;;1.40;;
69783;SDS011;57054;51.978;4.498;2023-08-12T10:01:56;9.27;;;2.40;;
69783;SDS011;57054;51.978;4.498;2023-08-12T10:04:22;5.60;;;1.30;;
69783;SDS011;57054;51.978;4.498;2023-08-12T10:06:51;7.97;;;1.92;;
69783;SDS011;57054;51.978;4.498;2023-08-12T10:09:17;4.78;;;1.70;;
69783;SDS011;57054;51.978;4.498;2023-08-12T10:11:43;6.00;;;2.05;;
69783;SDS011;57054;51.978;4.498;2023-08-12T10:14:10;4.95;;;1.58;;
69783;SDS011;57054;51.978;4.498;2023-08-12T10:16:37;8.15;;;2.33;;
69783;SDS011;57054;51.978;4.498;2023-08-12T10:19:03;5.43;;;2.03;;
69783;SDS011;57054;51.978;4.498;2023-08-12T10:21:30;6.15;;;1.88;;
69783;SDS011;57054;51.978;4.498;2023-08-12T10:23:56;4.05;;;1.80;;
69783;SDS011;57054;51.978;4.498;2023-08-12T10:26:24;11.07;;;2.13;;
69783;SDS011;57054;51.978;4.498;2023-08-12T10:28:50;3.72;;;2.05;;
69783;SDS011;57054;51.978;4.498;2023-08-12T10:31:15;3.22;;;1.60;;
69783;SDS011;57054;51.978;4.498;2023-08-12T10:33:41;7.10;;;2.20;;
69783;SDS011;57054;51.978;4.498;2023-08-12T10:36:07;6.90;;;2.05;;
69783;SDS011;57054;51.978;4.498;2023-08-12T10:38:34;10.65;;;2.15;;
69783;SDS011;57054;51.978;4.498;2023-08-12T10:46:30;9.02;;;2.15;;
69783;SDS011;57054;51.978;4.498;2023-08-12T10:49:02;4.63;;;2.05;;
69783;SDS011;57054;51.978;4.498;2023-08-12T10:51:39;7.10;;;2.13;;
69783;SDS011;57054;51.978;4.498;2023-08-12T10:54:24;5.10;;;2.20;;
69783;SDS011;57054;51.978;4.498;2023-08-12T11:02:17;6.72;;;2.25;;
69783;SDS011;57054;51.978;4.498;2023-08-12T11:05:02;5.60;;;2.05;;
69783;SDS011;57054;51.978;4.498;2023-08-12T11:07:42;11.70;;;2.22;;
69783;SDS011;57054;51.978;4.498;2023-08-12T11:12:42;9.68;;;2.50;;
69783;SDS011;57054;51.978;4.498;2023-08-12T11:15:14;8.30;;;2.10;;
69783;SDS011;57054;51.978;4.498;2023-08-12T11:17:40;11.95;;;2.33;;
69783;SDS011;57054;51.978;4.498;2023-08-12T11:20:07;6.85;;;2.50;;
69783;SDS011;57054;51.978;4.498;2023-08-12T11:22:41;8.38;;;2.47;;
69783;SDS011;57054;51.978;4.498;2023-08-12T11:25:08;7.28;;;2.28;;
69783;SDS011;57054;51.978;4.498;2023-08-12T11:27:47;5.70;;;2.28;;
69783;SDS011;57054;51.978;4.498;2023-08-12T11:30:14;10.75;;;2.83;;
69783;SDS011;57054;51.978;4.498;2023-08-12T11:32:46;9.45;;;2.50;;
69783;SDS011;57054;51.978;4.498;2023-08-12T11:35:13;8.20;;;2.10;;
69783;SDS011;57054;51.978;4.498;2023-08-12T11:37:41;5.18;;;2.08;;
69783;SDS011;57054;51.978;4.498;2023-08-12T11:40:09;5.35;;;2.10;;
69783;SDS011;57054;51.978;4.498;2023-08-12T11:42:36;7.32;;;2.35;;
69783;SDS011;57054;51.978;4.498;2023-08-12T11:45:05;7.55;;;2.47;;
69783;SDS011;57054;51.978;4.498;2023-08-12T11:47:33;9.02;;;2.50;;
69783;SDS011;57054;51.978;4.498;2023-08-12T11:50:01;4.95;;;2.53;;
69783;SDS011;57054;51.978;4.498;2023-08-12T11:52:28;9.80;;;2.22;;
69783;SDS011;57054;51.978;4.498;2023-08-12T11:54:54;9.63;;;2.83;;
69783;SDS011;57054;51.978;4.498;2023-08-12T11:57:22;9.50;;;2.25;;
69783;SDS011;57054;51.978;4.498;2023-08-12T11:59:48;9.68;;;2.78;;
69783;SDS011;57054;51.978;4.498;2023-08-12T12:02:13;13.02;;;2.63;;
69783;SDS011;57054;51.978;4.498;2023-08-12T12:04:40;9.85;;;2.28;;
69783;SDS011;57054;51.978;4.498;2023-08-12T12:07:18;8.60;;;2.33;;
69783;SDS011;57054;51.978;4.498;2023-08-12T12:09:44;11.30;;;2.75;;
69783;SDS011;57054;51.978;4.498;2023-08-12T12:12:09;9.05;;;2.55;;
69783;SDS011;57054;51.978;4.498;2023-08-12T12:14:35;10.40;;;2.05;;
69783;SDS011;57054;51.978;4.498;2023-08-12T12:17:01;9.65;;;2.78;;
69783;SDS011;57054;51.978;4.498;2023-08-12T12:19:32;10.02;;;2.42;;
69783;SDS011;57054;51.978;4.498;2023-08-12T12:21:57;11.15;;;2.70;;
69783;SDS011;57054;51.978;4.498;2023-08-12T12:24:29;8.30;;;2.20;;
69783;SDS011;57054;51.978;4.498;2023-08-12T12:26:55;6.97;;;2.50;;
69783;SDS011;57054;51.978;4.498;2023-08-12T12:29:21;6.28;;;2.30;;
69783;SDS011;57054;51.978;4.498;2023-08-12T12:31:47;12.10;;;2.47;;
69783;SDS011;57054;51.978;4.498;2023-08-12T12:34:12;7.40;;;2.15;;
69783;SDS011;57054;51.978;4.498;2023-08-12T12:36:39;10.15;;;2.65;;
69783;SDS011;57054;51.978;4.498;2023-08-12T12:39:05;6.10;;;2.17;;
69783;SDS011;57054;51.978;4.498;2023-08-12T12:41:32;9.02;;;2.47;;
69783;SDS011;57054;51.978;4.498;2023-08-12T12:43:59;7.95;;;2.75;;
69783;SDS011;57054;51.978;4.498;2023-08-12T12:48:52;7.95;;;2.47;;
69783;SDS011;57054;51.978;4.498;2023-08-12T12:51:17;9.85;;;2.70;;
69783;SDS011;57054;51.978;4.498;2023-08-12T12:53:42;7.05;;;2.80;;
69783;SDS011;57054;51.978;4.498;2023-08-12T12:56:08;6.72;;;1.98;;
69783;SDS011;57054;51.978;4.498;2023-08-12T12:58:34;5.43;;;2.40;;
69783;SDS011;57054;51.978;4.498;2023-08-12T13:01:00;7.28;;;2.53;;
69783;SDS011;57054;51.978;4.498;2023-08-12T13:03:26;7.63;;;2.42;;
69783;SDS011;57054;51.978;4.498;2023-08-12T13:05:52;6.22;;;2.70;;
69783;SDS011;57054;51.978;4.498;2023-08-12T13:08:18;7.25;;;2.58;;
69783;SDS011;57054;51.978;4.498;2023-08-12T13:10:43;10.07;;;2.83;;
69783;SDS011;57054;51.978;4.498;2023-08-12T13:13:09;7.95;;;2.80;;
69783;SDS011;57054;51.978;4.498;2023-08-12T13:15:34;7.88;;;2.38;;
69783;SDS011;57054;51.978;4.498;2023-08-12T13:18:00;6.55;;;2.17;;
69783;SDS011;57054;51.978;4.498;2023-08-12T13:20:26;9.32;;;2.55;;
69783;SDS011;57054;51.978;4.498;2023-08-12T13:22:51;8.70;;;3.25;;
69783;SDS011;57054;51.978;4.498;2023-08-12T13:25:17;9.00;;;2.45;;
69783;SDS011;57054;51.978;4.498;2023-08-12T13:27:42;5.72;;;1.95;;
69783;SDS011;57054;51.978;4.498;2023-08-12T13:30:08;11.57;;;2.97;;
69783;SDS011;57054;51.978;4.498;2023-08-12T13:32:36;11.40;;;2.60;;
69783;SDS011;57054;51.978;4.498;2023-08-12T13:35:01;6.43;;;2.08;;
69783;SDS011;57054;51.978;4.498;2023-08-12T13:37:27;8.25;;;2.30;;
69783;SDS011;57054;51.978;4.498;2023-08-12T13:39:52;7.55;;;2.20;;
69783;SDS011;57054;51.978;4.498;2023-08-12T13:42:17;7.47;;;2.55;;
69783;SDS011;57054;51.978;4.498;2023-08-12T13:44:43;7.50;;;2.40;;
69783;SDS011;57054;51.978;4.498;2023-08-12T13:47:08;4.55;;;2.15;;
69783;SDS011;57054;51.978;4.498;2023-08-12T13:49:33;6.15;;;2.60;;
69783;SDS011;57054;51.978;4.498;2023-08-12T13:51:59;10.27;;;2.53;;
69783;SDS011;57054;51.978;4.498;2023-08-12T13:54:24;5.70;;;2.35;;
69783;SDS011;57054;51.978;4.498;2023-08-12T13:56:50;8.98;;;2.63;;
69783;SDS011;57054;51.978;4.498;2023-08-12T13:59:15;8.70;;;2.58;;
69783;SDS011;57054;51.978;4.498;2023-08-12T14:01:41;8.10;;;2.80;;
69783;SDS011;57054;51.978;4.498;2023-08-12T14:04:06;13.25;;;3.38;;
69783;SDS011;57054;51.978;4.498;2023-08-12T14:06:31;8.73;;;2.58;;
69783;SDS011;57054;51.978;4.498;2023-08-12T14:08:57;8.00;;;2.28;;
69783;SDS011;57054;51.978;4.498;2023-08-12T14:11:22;5.85;;;2.10;;
69783;SDS011;57054;51.978;4.498;2023-08-12T14:13:47;8.73;;;2.50;;
69783;SDS011;57054;51.978;4.498;2023-08-12T14:16:13;10.75;;;2.80;;
69783;SDS011;57054;51.978;4.498;2023-08-12T14:18:38;6.00;;;2.42;;
69783;SDS011;57054;51.978;4.498;2023-08-12T14:21:04;6.78;;;2.45;;
69783;SDS011;57054;51.978;4.498;2023-08-12T14:23:29;10.82;;;3.38;;
69783;SDS011;57054;51.978;4.498;2023-08-12T14:25:55;11.48;;;2.70;;
69783;SDS011;57054;51.978;4.498;2023-08-12T14:28:20;7.28;;;2.28;;
69783;SDS011;57054;51.978;4.498;2023-08-12T14:30:45;9.52;;;2.65;;
69783;SDS011;57054;51.978;4.498;2023-08-12T14:33:11;7.30;;;2.17;;
69783;SDS011;57054;51.978;4.498;2023-08-12T14:35:36;7.68;;;2.58;;
69783;SDS011;57054;51.978;4.498;2023-08-12T14:38:01;8.23;;;2.80;;
69783;SDS011;57054;51.978;4.498;2023-08-12T14:40:27;6.25;;;2.10;;
69783;SDS011;57054;51.978;4.498;2023-08-12T14:42:53;11.82;;;2.88;;
69783;SDS011;57054;51.978;4.498;2023-08-12T14:45:18;7.50;;;2.05;;
69783;SDS011;57054;51.978;4.498;2023-08-12T14:47:44;9.10;;;2.25;;
69783;SDS011;57054;51.978;4.498;2023-08-12T14:50:09;8.07;;;2.00;;
69783;SDS011;57054;51.978;4.498;2023-08-12T14:52:35;7.25;;;2.08;;
69783;SDS011;57054;51.978;4.498;2023-08-12T14:55:00;8.43;;;2.03;;
69783;SDS011;57054;51.978;4.498;2023-08-12T14:57:26;10.63;;;2.42;;
69783;SDS011;57054;51.978;4.498;2023-08-12T14:59:51;6.78;;;1.95;;
69783;SDS011;57054;51.978;4.498;2023-08-12T15:02:17;8.68;;;2.55;;